Time;durP1;ratioP1;P1;durP2;ratioP2;P2;SDS_P1;SDS_P2;PMS_P1;PMS_P2;Temp;Humidity;BMP_temperature;BMP_pressure;BME280_temperature;BME280_humidity;BME280_pressure;Samples;Min_cycle;Max_cycle;Signal;HPM_P1;HPM_P2
2022/11/24 00:04:39;;;;;;;0.20;0.10;;;15.80;99.90;;;;;;25787611;23;20381;-71
2022/11/24 00:14:43;;;;;;;0.20;0.10;;;15.70;99.90;;;;;;25760690;23;20377;-71
2022/11/24 00:24:49;;;;;;;0.20;0.10;;;15.80;99.90;;;;;;25786534;23;20370;-71
2022/11/24 00:34:53;;;;;;;0.20;0.10;;;15.80;99.90;;;;;;25787320;23;20370;-71
2022/11/24 00:44:58;;;;;;;0.20;0.00;;;15.90;99.90;;;;;;25760820;23;20449;-71
2022/11/24 00:55:02;;;;;;;0.20;0.10;;;15.70;99.90;;;;;;25786867;23;20366;-72
2022/11/24 01:05:08;;;;;;;0.20;0.00;;;15.40;99.90;;;;;;25785509;23;20382;-70
2022/11/24 01:15:11;;;;;;;0.20;0.10;;;15.10;99.90;;;;;;25786850;23;20362;-70
2022/11/24 01:25:17;;;;;;;0.20;0.10;;;14.80;99.90;;;;;;25759065;23;20370;-71
2022/11/24 01:35:20;;;;;;;0.20;0.10;;;14.40;99.90;;;;;;25783184;23;20377;-71
2022/11/24 01:45:39;;;;;;;0.20;0.10;;;14.00;99.90;;;;;;25784130;23;20370;-69
2022/11/24 01:55:44;;;;;;;0.20;0.10;;;13.90;99.90;;;;;;25733546;23;20366;-71
2022/11/24 02:05:55;;;;;;;0.20;0.00;;;13.80;99.90;;;;;;25783109;23;20370;-71
2022/11/24 02:15:59;;;;;;;0.20;0.10;;;13.60;99.90;;;;;;25757690;23;20380;-71
2022/11/24 02:26:12;;;;;;;0.20;0.10;;;13.50;99.90;;;;;;25755574;23;20385;-70
2022/11/24 02:36:19;;;;;;;0.20;0.10;;;13.20;99.90;;;;;;25752618;23;20493;-71
2022/11/24 02:46:23;;;;;;;0.20;0.00;;;13.10;99.90;;;;;;25782128;23;20373;-71
2022/11/24 02:56:29;;;;;;;0.20;0.00;;;13.20;99.90;;;;;;25754937;23;20362;-71
2022/11/24 03:06:32;;;;;;;0.20;0.10;;;13.50;99.90;;;;;;25781837;23;20922;-71
2022/11/24 03:16:38;;;;;;;0.20;0.00;;;13.60;99.90;;;;;;25752328;23;20376;-71
2022/11/24 03:26:41;;;;;;;0.20;0.00;;;13.90;99.90;;;;;;25781071;23;20373;-69
2022/11/24 03:36:47;;;;;;;0.20;0.10;;;14.10;99.90;;;;;;25753184;23;20369;-71
2022/11/24 03:46:50;;;;;;;0.20;0.08;;;14.10;99.90;;;;;;25780641;23;20377;-71
2022/11/24 03:56:56;;;;;;;0.20;0.10;;;14.10;99.90;;;;;;25757464;23;20358;-70
2022/11/24 04:06:59;;;;;;;0.20;0.10;;;14.20;99.90;;;;;;25786793;23;20385;-71
2022/11/24 04:17:05;;;;;;;0.20;0.10;;;14.30;99.90;;;;;;25787910;23;20366;-72
2022/11/24 04:27:08;;;;;;;0.20;0.10;;;14.30;99.90;;;;;;25787318;23;20376;-72
2022/11/24 04:37:13;;;;;;;0.20;0.10;;;14.20;99.90;;;;;;25760900;23;20381;-72
2022/11/24 04:47:20;;;;;;;0.20;0.10;;;14.20;99.90;;;;;;25786199;23;20404;-72
2022/11/24 04:57:26;;;;;;;0.20;0.10;;;14.00;99.90;;;;;;25759061;23;20357;-71
2022/11/24 05:07:30;;;;;;;0.20;0.00;;;13.70;99.90;;;;;;25783989;23;20370;-71
2022/11/24 05:17:38;;;;;;;0.20;0.10;;;13.50;99.90;;;;;;25784203;23;21000;-71
2022/11/24 05:27:42;;;;;;;0.20;0.10;;;13.40;99.90;;;;;;25777171;23;20428;-72
2022/11/24 05:37:47;;;;;;;0.20;0.10;;;13.30;99.90;;;;;;25755213;23;20411;-72
2022/11/24 05:47:52;;;;;;;0.20;0.10;;;13.00;99.90;;;;;;25779841;23;20470;-72
2022/11/24 05:58:00;;;;;;;0.20;0.03;;;13.20;99.90;;;;;;25782091;23;20370;-70
2022/11/24 06:08:04;;;;;;;0.20;0.00;;;13.30;99.90;;;;;;25781523;23;20372;-72
2022/11/24 06:18:09;;;;;;;0.20;0.03;;;13.60;99.90;;;;;;25752627;23;20385;-72
2022/11/24 06:28:13;;;;;;;0.20;0.10;;;13.70;99.90;;;;;;25782776;23;20385;-71
2022/11/24 06:38:18;;;;;;;0.20;0.10;;;14.00;99.90;;;;;;25779733;23;20381;-71
2022/11/24 06:48:27;;;;;;;0.20;0.10;;;14.00;99.90;;;;;;25751697;23;20445;-73
2022/11/24 06:58:32;;;;;;;0.20;0.03;;;13.90;99.90;;;;;;25773547;23;20366;-71
2022/11/24 07:08:36;;;;;;;0.20;0.10;;;13.60;99.90;;;;;;25772726;23;20366;-69
2022/11/24 07:18:41;;;;;;;0.20;0.10;;;13.30;99.90;;;;;;25751299;23;20388;-72
2022/11/24 07:28:46;;;;;;;0.20;0.00;;;13.20;99.90;;;;;;25758343;23;20384;-71
2022/11/24 07:38:51;;;;;;;0.20;0.10;;;13.30;99.90;;;;;;25759237;23;20370;-71
2022/11/24 07:48:55;;;;;;;0.20;0.10;;;14.10;99.90;;;;;;25759390;23;20384;-72
2022/11/24 07:59:01;;;;;;;0.20;0.10;;;14.10;99.90;;;;;;25733212;23;20392;-71
2022/11/24 08:09:05;;;;;;;0.20;0.00;;;14.70;99.90;;;;;;25783775;23;20378;-71
2022/11/24 08:19:11;;;;;;;0.20;0.10;;;15.50;99.90;;;;;;25756254;23;20370;-71
2022/11/24 08:29:14;;;;;;;0.20;0.10;;;15.80;99.90;;;;;;25783421;23;20385;-72
2022/11/24 08:39:20;;;;;;;0.20;0.10;;;16.20;99.90;;;;;;25757873;23;20418;-74
2022/11/24 08:49:23;;;;;;;0.20;0.10;;;16.40;99.90;;;;;;25783370;23;20389;-72
2022/11/24 08:59:29;;;;;;;0.20;0.10;;;16.60;99.90;;;;;;25755637;23;20381;-70
2022/11/24 09:09:33;;;;;;;0.20;0.10;;;17.10;99.90;;;;;;25729318;23;20373;-70
2022/11/24 09:19:39;;;;;;;0.20;0.10;;;17.90;99.90;;;;;;25781891;23;20385;-70
2022/11/24 09:29:56;;;;;;;0.20;0.10;;;17.70;99.90;;;;;;25715975;23;20397;-71
2022/11/24 09:40:02;;;;;;;0.20;0.10;;;17.90;99.90;;;;;;25754707;23;20430;-73
2022/11/24 09:50:10;;;;;;;0.20;0.00;;;17.90;99.90;;;;;;25752942;23;20377;-73
2022/11/24 10:00:16;;;;;;;0.20;0.10;;;18.30;99.90;;;;;;25754969;23;20384;-74
2022/11/24 10:10:25;;;;;;;0.20;0.10;;;18.50;99.90;;;;;;25753431;23;20366;-72
2022/11/24 10:20:41;;;;;;;0.20;0.10;;;18.60;99.90;;;;;;25777759;23;20374;-73
2022/11/24 10:30:45;;;;;;;0.20;0.03;;;19.30;99.90;;;;;;25748597;23;20366;-74
2022/11/24 10:40:53;;;;;;;0.20;0.10;;;18.20;99.90;;;;;;25774865;23;20381;-73
2022/11/24 10:51:20;;;;;;;0.20;0.10;;;18.40;99.90;;;;;;25748419;23;20358;-74
2022/11/24 11:01:32;;;;;;;0.20;0.10;;;17.90;99.90;;;;;;25778727;23;20397;-73
2022/11/24 11:11:38;;;;;;;0.20;0.10;;;18.10;99.90;;;;;;25735199;23;20419;-73
2022/11/24 11:21:43;;;;;;;0.20;0.00;;;20.10;99.90;;;;;;25787163;23;20377;-74
2022/11/24 11:32:01;;;;;;;0.20;0.10;;;20.70;99.90;;;;;;25785437;23;20365;-72
2022/11/24 11:42:38;;;;;;;0.20;0.00;;;20.40;99.90;;;;;;25786991;23;20389;-73
2022/11/24 11:53:10;;;;;;;0.20;0.10;;;20.80;99.90;;;;;;25786229;23;20370;-73
2022/11/24 12:03:41;;;;;;;0.20;0.10;;;21.00;99.90;;;;;;25781863;23;20448;-73
2022/11/24 12:14:01;;;;;;;0.20;0.10;;;20.70;99.90;;;;;;25783352;23;20388;-75
2022/11/24 12:24:14;;;;;;;0.20;0.00;;;20.20;99.90;;;;;;25785905;23;20381;-74
2022/11/24 12:34:30;;;;;;;0.20;0.00;;;21.10;99.90;;;;;;25783529;23;20369;-73
2022/11/24 12:45:02;;;;;;;0.20;0.00;;;20.50;99.90;;;;;;25781313;23;20374;-73
2022/11/24 12:55:14;;;;;;;0.20;0.10;;;20.00;99.90;;;;;;25784895;23;20379;-72
2022/11/24 13:05:25;;;;;;;0.20;0.10;;;19.70;99.90;;;;;;25781575;23;20374;-74
2022/11/24 13:15:31;;;;;;;0.20;0.10;;;18.90;99.90;;;;;;25779707;23;20508;-75
2022/11/24 13:26:14;;;;;;;0.20;0.00;;;18.50;99.90;;;;;;25779021;23;20362;-73
2022/11/24 13:36:50;;;;;;;0.20;0.07;;;18.00;99.90;;;;;;25747165;23;20374;-74
2022/11/24 13:47:00;;;;;;;0.20;0.10;;;17.90;99.90;;;;;;25776330;23;20377;-68
2022/11/24 13:57:35;;;;;;;0.20;0.00;;;17.80;99.90;;;;;;25752792;23;20362;-74
2022/11/24 14:07:41;;;;;;;0.20;0.00;;;17.50;99.90;;;;;;25778835;23;20378;-74
2022/11/24 14:17:45;;;;;;;0.20;0.00;;;17.50;99.90;;;;;;25754056;23;20386;-72
2022/11/24 14:27:50;;;;;;;0.20;0.00;;;18.90;99.90;;;;;;25775747;23;20377;-74
2022/11/24 14:37:54;;;;;;;0.20;0.00;;;20.50;99.90;;;;;;25748767;23;20385;-72
2022/11/24 14:47:59;;;;;;;0.20;0.10;;;20.00;99.90;;;;;;25746722;23;20366;-73
2022/11/24 14:58:20;;;;;;;0.20;0.00;;;19.50;99.90;;;;;;25746425;23;20469;-77
2022/11/24 15:08:27;;;;;;;0.20;0.03;;;20.40;99.90;;;;;;25774433;23;20378;-74
2022/11/24 15:18:39;;;;;;;0.20;0.00;;;20.70;99.90;;;;;;25774798;23;20372;-74
2022/11/24 15:28:46;;;;;;;0.20;0.10;;;19.80;99.90;;;;;;25745979;23;20381;-74
2022/11/24 15:38:50;;;;;;;0.20;0.00;;;19.40;99.90;;;;;;25748455;23;20366;-73
2022/11/24 15:48:56;;;;;;;0.20;0.00;;;19.00;99.90;;;;;;25775441;23;20377;-72
2022/11/24 15:59:01;;;;;;;0.20;0.10;;;18.20;99.90;;;;;;25751404;23;20793;-74
2022/11/24 16:09:07;;;;;;;0.20;0.00;;;17.90;99.90;;;;;;25750511;23;20386;-75
2022/11/24 16:19:11;;;;;;;0.20;0.10;;;17.60;99.90;;;;;;25744801;23;20377;-74
2022/11/24 16:29:16;;;;;;;0.20;0.10;;;17.40;99.90;;;;;;25777861;23;20870;-73
2022/11/24 16:39:19;;;;;;;0.20;0.10;;;17.00;99.90;;;;;;25775671;23;20366;-74
2022/11/24 16:49:24;;;;;;;0.20;0.10;;;16.60;99.90;;;;;;25750482;23;20382;-73
2022/11/24 16:59:29;;;;;;;0.20;0.10;;;16.60;99.90;;;;;;25777622;23;20521;-73
2022/11/24 17:09:34;;;;;;;0.20;0.10;;;16.70;99.90;;;;;;25752160;23;20393;-73
2022/11/24 17:19:43;;;;;;;0.20;0.10;;;16.60;99.90;;;;;;25775672;23;20361;-72
2022/11/24 17:29:48;;;;;;;0.20;0.10;;;16.50;99.90;;;;;;25776798;23;20374;-73
2022/11/24 17:39:52;;;;;;;0.20;0.10;;;16.60;99.90;;;;;;25749120;23;20381;-71
2022/11/24 17:50:18;;;;;;;0.20;0.10;;;16.70;99.90;;;;;;25777065;23;20382;-72
2022/11/24 18:00:28;;;;;;;0.20;0.10;;;16.70;99.90;;;;;;25775036;23;20366;-70
2022/11/24 18:10:34;;;;;;;0.20;0.10;;;16.80;99.90;;;;;;25743680;23;20369;-74
2022/11/24 18:20:38;;;;;;;0.20;0.00;;;16.60;99.90;;;;;;25773108;23;20362;-76
2022/11/24 18:30:43;;;;;;;0.20;0.00;;;16.60;99.90;;;;;;25772178;23;20405;-73
2022/11/24 18:40:53;;;;;;;0.20;0.10;;;16.70;99.90;;;;;;25773464;23;20374;-73
2022/11/24 18:50:58;;;;;;;0.20;0.10;;;16.80;99.90;;;;;;25746080;23;20443;-73
2022/11/24 19:01:07;;;;;;;0.20;0.10;;;17.10;99.90;;;;;;25772056;23;20377;-72
2022/11/24 19:11:19;;;;;;;0.20;0.10;;;17.10;99.90;;;;;;25748598;23;20370;-75
2022/11/24 19:21:23;;;;;;;0.20;0.10;;;17.10;99.90;;;;;;25776773;23;20385;-72
2022/11/24 19:31:28;;;;;;;0.20;0.00;;;17.20;99.90;;;;;;25785271;23;20412;-72
2022/11/24 19:41:33;;;;;;;0.20;0.20;;;17.30;99.90;;;;;;25782814;23;20369;-73
2022/11/24 19:51:39;;;;;;;0.20;0.10;;;17.10;99.90;;;;;;25780982;23;20374;-73
2022/11/24 20:01:43;;;;;;;0.20;0.10;;;17.00;99.90;;;;;;25779704;23;20374;-71
2022/11/24 20:11:49;;;;;;;0.20;0.10;;;16.20;99.90;;;;;;25777105;23;20421;-71
2022/11/24 20:21:53;;;;;;;0.20;0.10;;;16.00;99.90;;;;;;25750284;23;20400;-72
2022/11/24 20:31:58;;;;;;;0.20;0.10;;;15.90;99.90;;;;;;25752366;23;20424;-72
2022/11/24 20:42:03;;;;;;;0.20;0.10;;;15.90;99.90;;;;;;25781172;23;20377;-72
2022/11/24 20:52:08;;;;;;;0.20;0.10;;;15.40;99.90;;;;;;25752292;23;20385;-71
2022/11/24 21:02:12;;;;;;;0.20;0.00;;;15.30;99.90;;;;;;25779800;23;20369;-70
2022/11/24 21:12:17;;;;;;;0.20;0.10;;;15.10;99.90;;;;;;25777886;23;20430;-72
2022/11/24 21:22:21;;;;;;;0.20;0.10;;;15.00;99.90;;;;;;25754737;23;20370;-69
2022/11/24 21:32:27;;;;;;;0.20;0.10;;;15.00;99.90;;;;;;25748463;23;20463;-69
2022/11/24 21:42:30;;;;;;;0.20;0.10;;;15.30;99.90;;;;;;25750560;23;20366;-70
2022/11/24 21:52:36;;;;;;;0.20;0.03;;;15.40;99.90;;;;;;25778013;23;20365;-70
2022/11/24 22:02:43;;;;;;;0.20;0.10;;;15.70;99.90;;;;;;25777119;23;20369;-71
2022/11/24 22:12:48;;;;;;;0.20;0.00;;;15.90;99.90;;;;;;25752542;23;20354;-71
2022/11/24 22:22:52;;;;;;;0.20;0.10;;;15.80;99.90;;;;;;25749751;23;20392;-70
2022/11/24 22:32:57;;;;;;;0.20;0.00;;;15.80;99.90;;;;;;25778423;23;20374;-70
2022/11/24 22:43:01;;;;;;;0.20;0.10;;;15.90;99.90;;;;;;25775359;23;20432;-70
2022/11/24 22:53:06;;;;;;;0.20;0.10;;;15.80;99.90;;;;;;25750517;23;20441;-70
2022/11/24 23:03:10;;;;;;;0.20;0.10;;;15.60;99.90;;;;;;25776842;23;20362;-71
2022/11/24 23:13:15;;;;;;;0.20;0.10;;;15.60;99.90;;;;;;25777971;23;20358;-69
2022/11/24 23:23:19;;;;;;;0.20;0.10;;;15.70;99.90;;;;;;25726902;23;20384;-69
2022/11/24 23:33:25;;;;;;;0.20;0.10;;;15.50;99.90;;;;;;25778777;23;20369;-69
2022/11/24 23:43:28;;;;;;;0.20;0.10;;;15.70;99.90;;;;;;25777653;23;20370;-70
2022/11/24 23:53:35;;;;;;;0.20;0.00;;;16.10;99.90;;;;;;25781472;23;20362;-70
